Time;durP1;ratioP1;P1;durP2;ratioP2;P2;SDS_P1;SDS_P2;PMS_P1;PMS_P2;Temp;Humidity;BMP_temperature;BMP_pressure;BME280_temperature;BME280_humidity;BME280_pressure;Samples;Min_cycle;Max_cycle;Signal;HPM_P1;HPM_P2
2022/08/04 00:02:09;;;;;;;4.28;2.50;;;;;;;21.76;73.97;101335.13;5029242;28;20049;-75
2022/08/04 00:04:47;;;;;;;3.97;2.35;;;;;;;21.74;73.64;101337.06;5044535;28;20025;-75
2022/08/04 00:07:22;;;;;;;3.15;2.30;;;;;;;21.73;73.79;101337.19;5044966;28;20041;-74
2022/08/04 00:09:52;;;;;;;4.20;2.65;;;;;;;21.72;73.76;101338.16;5044836;28;20031;-74
2022/08/04 00:12:21;;;;;;;3.38;2.45;;;;;;;21.71;73.92;101337.31;5044733;28;20040;-74
2022/08/04 00:14:51;;;;;;;3.85;2.30;;;;;;;21.70;73.99;101337.44;5043319;28;20053;-74
2022/08/04 00:17:22;;;;;;;3.97;2.38;;;;;;;21.68;74.03;101332.22;5044599;28;20072;-74
2022/08/04 00:19:54;;;;;;;6.05;2.55;;;;;;;21.67;73.97;101334.03;5045267;28;20302;-74
2022/08/04 00:22:22;;;;;;;5.55;2.33;;;;;;;21.66;74.43;101326.16;5044068;28;20017;-74
2022/08/04 00:24:47;;;;;;;2.60;2.40;;;;;;;21.65;74.02;101328.00;5044846;28;20029;-75
2022/08/04 00:27:13;;;;;;;3.40;2.58;;;;;;;21.65;74.30;101327.16;5042961;28;20260;-74
2022/08/04 00:29:38;;;;;;;2.60;2.03;;;;;;;21.64;74.31;101328.94;5043469;28;20033;-74
2022/08/04 00:32:05;;;;;;;4.38;2.90;;;;;;;21.63;74.23;101324.59;5076631;28;20033;-74
2022/08/04 00:34:32;;;;;;;4.28;2.50;;;;;;;21.62;74.36;101328.22;5043146;28;20056;-74
2022/08/04 00:36:58;;;;;;;5.63;2.05;;;;;;;21.61;74.64;101323.88;5042865;28;20021;-74
2022/08/04 00:39:24;;;;;;;2.42;2.15;;;;;;;21.58;74.86;101324.13;5026037;28;20056;-74
2022/08/04 00:41:56;;;;;;;3.22;2.40;;;;;;;21.58;74.82;101317.94;5026583;28;20038;-74
2022/08/04 00:44:37;;;;;;;4.20;2.40;;;;;;;21.57;75.02;101319.75;5043747;28;20087;-74
2022/08/04 00:47:31;;;;;;;3.45;2.30;;;;;;;21.55;75.16;101316.34;5044042;28;20033;-74
2022/08/04 00:50:04;;;;;;;3.35;2.50;;;;;;;21.54;75.10;101328.00;5042522;28;20030;-74
2022/08/04 00:52:30;;;;;;;3.03;2.47;;;;;;;21.53;75.28;101325.44;5044006;28;20558;-74
2022/08/04 00:55:17;;;;;;;5.67;2.70;;;;;;;21.50;75.15;101318.53;5042356;28;20033;-74
2022/08/04 00:58:08;;;;;;;2.35;2.13;;;;;;;21.49;75.31;101316.84;5043974;28;20029;-74
2022/08/04 01:04:23;;;;;;;4.57;2.35;;;;;;;21.46;75.57;101311.75;5031085;28;20057;-74
2022/08/04 01:07:04;;;;;;;2.78;2.40;;;;;;;21.44;75.66;101305.69;5025544;28;20037;-74
2022/08/04 01:09:47;;;;;;;4.30;2.53;;;;;;;21.43;75.77;101306.66;5023499;28;20054;-74
2022/08/04 01:12:41;;;;;;;4.80;2.50;;;;;;;21.41;75.81;101306.78;5023229;28;20030;-74
2022/08/04 01:15:20;;;;;;;2.58;2.40;;;;;;;21.39;76.19;101306.06;5039126;28;20022;-74
2022/08/04 01:17:52;;;;;;;4.57;2.50;;;;;;;21.38;75.86;101308.84;5038428;28;20049;-74
2022/08/04 01:20:24;;;;;;;3.20;2.15;;;;;;;21.38;75.96;101311.50;5038387;28;20026;-74
2022/08/04 01:23:20;;;;;;;2.40;2.20;;;;;;;21.37;75.58;101312.47;5023991;28;20276;-74
2022/08/04 01:26:09;;;;;;;2.45;2.25;;;;;;;21.36;75.74;101318.78;5022826;28;20029;-74
2022/08/04 01:28:40;;;;;;;;;;;;;;;21.36;75.87;101306.28;5022761;28;20372;-74
2022/08/04 01:31:24;;;;;;;2.88;2.40;;;;;;;21.34;75.81;101302.91;5023228;28;19905;-74
2022/08/04 01:33:56;;;;;;;3.15;2.65;;;;;;;21.33;76.13;101303.03;5023423;28;20034;-74
2022/08/04 01:36:23;;;;;;;2.75;2.40;;;;;;;21.31;75.93;101297.81;5022696;28;20099;-74
2022/08/04 01:38:49;;;;;;;5.40;2.85;;;;;;;21.28;76.19;101288.25;5038372;28;20041;-74
2022/08/04 01:41:18;;;;;;;4.68;2.00;;;;;;;21.28;76.27;101293.59;5021494;28;20028;-74
2022/08/04 01:43:45;;;;;;;5.22;2.35;;;;;;;21.29;76.03;101295.25;5038404;28;20025;-75
2022/08/04 01:46:13;;;;;;;4.18;2.38;;;;;;;21.28;76.11;101292.72;5021940;28;20046;-74
2022/08/04 01:48:41;;;;;;;5.90;2.33;;;;;;;21.27;76.17;101291.88;5022118;28;20034;-74
2022/08/04 01:51:08;;;;;;;3.30;2.63;;;;;;;21.26;76.16;101282.19;5022713;28;20045;-74
2022/08/04 01:53:39;;;;;;;2.50;2.30;;;;;;;21.24;76.10;101284.13;5019792;28;20034;-74
2022/08/04 01:56:07;;;;;;;3.80;2.50;;;;;;;21.23;76.44;101284.25;5038123;28;20037;-74
2022/08/04 01:58:34;;;;;;;4.00;2.40;;;;;;;21.22;76.38;101280.72;5020822;28;20085;-74
2022/08/04 02:01:05;;;;;;;3.55;2.60;;;;;;;21.21;76.70;101279.06;5037543;28;20044;-74
2022/08/04 02:03:32;;;;;;;3.97;2.10;;;;;;;21.21;76.57;101275.53;5020468;28;20044;-74
2022/08/04 02:06:16;;;;;;;2.67;2.47;;;;;;;21.18;76.43;101284.59;5037335;28;20394;-74
2022/08/04 02:09:09;;;;;;;3.65;2.40;;;;;;;21.17;76.51;101280.25;5053307;28;20345;-74
2022/08/04 02:11:35;;;;;;;2.85;2.33;;;;;;;21.16;76.51;101283.88;5020502;28;20052;-74
2022/08/04 02:14:39;;;;;;;6.55;2.85;;;;;;;21.15;76.64;101278.69;5037337;28;20041;-74
2022/08/04 02:17:24;;;;;;;3.55;2.35;;;;;;;21.14;76.38;101280.50;5021283;28;20034;-74
2022/08/04 02:20:02;;;;;;;3.72;2.60;;;;;;;21.12;76.50;101273.59;5053608;28;20030;-74
2022/08/04 02:22:28;;;;;;;4.95;2.30;;;;;;;21.10;76.61;101271.03;5019828;28;20045;-74
2022/08/04 02:25:03;;;;;;;3.33;2.47;;;;;;;21.09;76.67;101274.69;5022057;28;20033;-74
2022/08/04 02:27:36;;;;;;;3.80;2.05;;;;;;;21.08;76.87;101273.84;5020733;28;20106;-74
2022/08/04 02:30:03;;;;;;;3.10;2.10;;;;;;;21.07;76.75;101273.97;5021529;28;20036;-74
2022/08/04 02:32:38;;;;;;;3.22;2.50;;;;;;;21.05;77.05;101266.09;5036876;28;20108;-74
2022/08/04 02:35:28;;;;;;;3.47;2.42;;;;;;;21.04;77.01;101261.72;5021940;28;20025;-75
2022/08/04 02:38:15;;;;;;;2.42;2.10;;;;;;;21.02;76.90;101265.47;5035932;28;20101;-74
2022/08/04 02:40:42;;;;;;;6.60;2.60;;;;;;;21.01;76.90;101261.09;5021201;28;20044;-74
2022/08/04 02:43:08;;;;;;;6.13;2.28;;;;;;;20.99;77.06;101266.56;5036264;28;20037;-75
2022/08/04 02:45:41;;;;;;;2.55;2.15;;;;;;;20.97;77.18;101265.81;5020768;28;20117;-74
2022/08/04 02:48:08;;;;;;;4.28;2.40;;;;;;;20.97;77.15;101271.16;5020284;28;20096;-74
2022/08/04 02:50:34;;;;;;;2.25;2.10;;;;;;;20.96;77.08;101272.13;5021012;28;20060;-74
2022/08/04 02:53:02;;;;;;;3.38;2.00;;;;;;;20.96;77.23;101268.63;5036475;28;20259;-74
2022/08/04 02:55:28;;;;;;;3.97;2.20;;;;;;;20.95;77.01;101265.09;5018421;28;20069;-78
2022/08/04 02:57:56;;;;;;;3.42;2.55;;;;;;;20.94;76.97;101267.88;5016413;28;20299;-77
2022/08/04 03:00:23;;;;;;;2.83;2.30;;;;;;;20.94;77.19;101263.41;5016163;28;20041;-77
2022/08/04 03:03:04;;;;;;;2.95;2.75;;;;;;;20.92;77.15;101267.16;5016675;28;20097;-78
2022/08/04 03:05:45;;;;;;;4.93;2.58;;;;;;;20.90;77.03;101257.50;5015104;28;20034;-78
2022/08/04 03:08:29;;;;;;;5.43;2.45;;;;;;;20.89;77.17;101253.13;5016140;28;20093;-78
2022/08/04 03:11:19;;;;;;;5.15;2.10;;;;;;;20.88;77.25;101267.41;5015245;28;20036;-78
2022/08/04 03:13:52;;;;;;;3.15;2.33;;;;;;;20.86;77.29;101269.31;5016227;28;20105;-77
2022/08/04 03:16:39;;;;;;;6.20;2.60;;;;;;;20.85;77.16;101264.13;5031048;28;20052;-78
2022/08/04 03:19:23;;;;;;;3.97;2.25;;;;;;;20.83;77.38;101256.28;5031362;28;20375;-77
2022/08/04 03:22:04;;;;;;;8.38;2.75;;;;;;;20.83;77.32;101255.41;5031698;28;20169;-78
2022/08/04 03:24:54;;;;;;;5.53;2.50;;;;;;;20.81;77.36;101249.34;5015757;28;20037;-77
2022/08/04 03:27:54;;;;;;;4.18;2.42;;;;;;;20.80;77.44;101247.66;5016170;28;20337;-78
2022/08/04 03:30:35;;;;;;;4.85;2.40;;;;;;;20.78;77.36;101246.94;4998667;28;20041;-77
2022/08/04 03:33:22;;;;;;;4.97;2.30;;;;;;;20.77;77.57;101251.41;5016110;28;20033;-78
2022/08/04 03:35:59;;;;;;;3.78;2.50;;;;;;;20.75;77.52;101250.66;5016577;28;20025;-77
2022/08/04 03:38:53;;;;;;;3.83;2.40;;;;;;;20.74;77.39;101246.34;5015775;28;20057;-77
2022/08/04 03:41:48;;;;;;;3.72;2.55;;;;;;;20.71;77.48;101247.41;5015748;28;20325;-77
2022/08/04 03:44:28;;;;;;;3.70;2.28;;;;;;;20.70;77.53;101256.38;5015668;28;20041;-78
2022/08/04 03:47:45;;;;;;;3.63;2.63;;;;;;;20.68;77.29;101247.66;5016254;28;20034;-78
2022/08/04 03:50:33;;;;;;;2.67;2.10;;;;;;;20.66;77.40;101238.91;4961535;28;20065;-78
2022/08/04 03:53:33;;;;;;;3.10;2.25;;;;;;;20.67;77.78;101247.78;5016085;28;20416;-78
2022/08/04 03:56:10;;;;;;;3.92;2.92;;;;;;;20.64;77.60;101240.84;5016090;28;20050;-77
2022/08/04 03:58:47;;;;;;;2.58;2.30;;;;;;;20.62;77.80;101242.78;5015911;28;20064;-78
2022/08/04 04:01:18;;;;;;;2.80;2.60;;;;;;;20.62;77.87;101236.63;5030674;28;20317;-77
2022/08/04 04:04:03;;;;;;;3.38;2.28;;;;;;;20.62;77.73;101239.28;5015787;28;20044;-77
2022/08/04 04:07:06;;;;;;;5.32;2.53;;;;;;;20.60;78.01;101235.88;5030487;28;20116;-78
2022/08/04 04:10:02;;;;;;;2.35;2.15;;;;;;;20.59;77.93;101242.16;5015667;28;20046;-77
2022/08/04 04:12:36;;;;;;;6.47;2.78;;;;;;;20.57;78.01;101233.44;5015423;28;20029;-77
2022/08/04 04:15:27;;;;;;;2.67;2.45;;;;;;;20.56;78.02;101239.75;5015768;28;20213;-78
2022/08/04 04:18:14;;;;;;;4.15;2.75;;;;;;;20.55;78.13;101244.19;5016675;28;20036;-77
2022/08/04 04:21:07;;;;;;;3.78;2.20;;;;;;;20.53;78.34;101241.66;5019156;28;20038;-77
2022/08/04 04:24:13;;;;;;;5.32;2.60;;;;;;;20.51;78.23;101238.25;5016294;28;20022;-78
2022/08/04 04:26:44;;;;;;;3.75;2.60;;;;;;;20.51;78.14;101251.56;5016216;28;20054;-78
2022/08/04 04:29:50;;;;;;;4.47;2.63;;;;;;;20.50;78.32;101255.19;5016599;28;20091;-77
2022/08/04 04:32:22;;;;;;;3.30;2.47;;;;;;;20.49;78.33;101242.84;4977854;28;20038;-78
2022/08/04 04:35:03;;;;;;;4.65;2.47;;;;;;;20.48;78.23;101257.13;5017271;28;20244;-78
2022/08/04 04:37:50;;;;;;;4.03;2.50;;;;;;;20.49;78.29;101247.34;5016089;28;20033;-77
2022/08/04 04:40:18;;;;;;;3.65;2.70;;;;;;;20.48;78.47;101261.59;5017173;28;20037;-78
2022/08/04 04:43:12;;;;;;;4.18;2.38;;;;;;;20.45;78.44;101244.06;5017194;28;20060;-77
2022/08/04 04:46:12;;;;;;;2.78;2.40;;;;;;;20.45;78.44;101249.38;5017299;28;20033;-78
2022/08/04 04:48:47;;;;;;;3.22;2.20;;;;;;;20.45;78.47;101245.88;5015992;28;20033;-78
2022/08/04 04:51:15;;;;;;;4.93;2.63;;;;;;;20.44;78.57;101245.00;5017013;28;20505;-77
2022/08/04 04:54:10;;;;;;;5.68;2.50;;;;;;;20.44;78.43;101242.34;5017201;28;20042;-78
2022/08/04 04:56:50;;;;;;;3.55;2.60;;;;;;;20.43;78.38;101251.31;5048743;28;20341;-77
2022/08/04 04:59:20;;;;;;;3.38;2.22;;;;;;;20.44;78.54;101260.13;5015168;28;20341;-77
2022/08/04 05:01:57;;;;;;;3.33;2.40;;;;;;;20.43;78.36;101256.63;5017323;28;20037;-77
2022/08/04 05:04:32;;;;;;;2.40;1.92;;;;;;;20.43;78.36;101259.28;5015351;28;20454;-77
2022/08/04 05:07:42;;;;;;;5.15;2.20;;;;;;;20.43;78.33;101259.28;5015394;28;20033;-77
2022/08/04 05:10:26;;;;;;;5.88;2.22;;;;;;;20.44;78.24;101263.63;5016507;28;20037;-78
2022/08/04 05:13:23;;;;;;;5.30;2.30;;;;;;;20.44;78.30;101270.78;5015519;28;20072;-78
2022/08/04 05:15:54;;;;;;;13.25;2.05;;;;;;;20.44;78.18;101265.44;4984109;28;20241;-77
2022/08/04 05:18:25;;;;;;;4.75;1.98;;;;;;;20.44;78.04;101260.97;5016562;28;20026;-77
2022/08/04 05:20:56;;;;;;;1.90;1.77;;;;;;;20.44;78.48;101265.44;5015019;28;20045;-77
2022/08/04 05:23:28;;;;;;;4.80;1.92;;;;;;;20.44;78.54;101262.78;5016209;28;20046;-77
2022/08/04 05:25:58;;;;;;;4.90;1.77;;;;;;;20.43;78.70;101269.94;5016489;28;20041;-78
2022/08/04 05:28:29;;;;;;;4.60;1.83;;;;;;;20.43;78.65;101269.94;5015002;28;20240;-78
2022/08/04 05:31:01;;;;;;;5.65;1.92;;;;;;;20.44;78.65;101281.41;5016425;28;20034;-78
2022/08/04 05:33:51;;;;;;;3.38;1.85;;;;;;;20.43;78.11;101280.56;5015805;28;20042;-78
2022/08/04 05:36:19;;;;;;;3.75;1.63;;;;;;;20.44;77.51;101284.91;5015683;28;20452;-77
2022/08/04 05:38:48;;;;;;;3.15;1.48;;;;;;;20.44;77.24;101278.75;5016496;28;20090;-77
2022/08/04 05:41:14;;;;;;;1.55;1.45;;;;;;;20.44;77.12;101284.91;5014736;28;20064;-77
2022/08/04 05:43:42;;;;;;;2.25;1.70;;;;;;;20.45;77.13;101281.31;5014859;28;20124;-77
2022/08/04 05:46:11;;;;;;;3.15;1.55;;;;;;;20.45;77.64;101283.97;5015758;28;20050;-78
2022/08/04 05:48:38;;;;;;;1.83;1.60;;;;;;;20.46;77.63;101285.63;5015867;28;20253;-77
2022/08/04 05:51:04;;;;;;;2.35;1.40;;;;;;;20.45;77.26;101281.31;5016163;28;20280;-78
2022/08/04 05:53:31;;;;;;;3.45;1.60;;;;;;;20.46;77.21;101284.81;5015482;28;20064;-78
2022/08/04 05:55:58;;;;;;;3.22;1.27;;;;;;;20.45;77.47;101278.63;5016455;28;20213;-77
2022/08/04 05:58:25;;;;;;;4.05;2.08;;;;;;;20.47;77.70;101275.88;5030174;28;20243;-77
2022/08/04 06:00:53;;;;;;;1.63;1.50;;;;;;;20.47;77.62;101275.88;5015111;28;20091;-77
2022/08/04 06:03:21;;;;;;;2.72;1.40;;;;;;;20.46;77.56;101272.34;5015481;28;20068;-77
2022/08/04 06:05:48;;;;;;;2.58;1.55;;;;;;;20.46;76.96;101282.97;5016058;28;20060;-78
2022/08/04 06:08:14;;;;;;;2.05;1.20;;;;;;;20.47;76.93;101281.19;5015324;28;20045;-78
2022/08/04 06:10:43;;;;;;;2.13;1.50;;;;;;;20.48;76.60;101288.19;5015400;28;20046;-78
2022/08/04 06:13:14;;;;;;;1.83;1.33;;;;;;;20.48;76.29;101288.19;5015620;28;20368;-78
2022/08/04 06:15:41;;;;;;;3.42;1.70;;;;;;;20.48;75.58;101286.41;5015623;28;20049;-78
2022/08/04 06:18:09;;;;;;;4.03;1.45;;;;;;;20.50;76.14;101288.91;5014213;28;20041;-78
2022/08/04 06:20:37;;;;;;;3.03;1.30;;;;;;;20.50;76.11;101284.47;5015309;28;20049;-77
2022/08/04 06:23:07;;;;;;;2.03;1.40;;;;;;;20.50;76.17;101287.13;5015293;28;20041;-78
2022/08/04 06:25:40;;;;;;;3.40;1.50;;;;;;;20.50;75.62;101289.78;5013671;28;20410;-77
2022/08/04 06:28:07;;;;;;;3.95;1.40;;;;;;;20.52;75.41;101289.69;5014236;28;20080;-78
2022/08/04 06:30:34;;;;;;;2.58;1.45;;;;;;;20.51;74.95;101283.47;5013627;28;20027;-78
2022/08/04 06:33:02;;;;;;;1.30;1.20;;;;;;;20.52;75.30;101293.19;5013981;28;20365;-78
2022/08/04 06:35:30;;;;;;;4.95;1.17;;;;;;;20.52;74.90;101287.84;5013588;28;20199;-78
2022/08/04 06:37:56;;;;;;;1.60;1.10;;;;;;;20.55;75.16;101288.59;5023485;28;20076;-78
2022/08/04 06:40:23;;;;;;;2.22;1.05;;;;;;;20.55;75.42;101289.41;5033051;28;20316;-77
2022/08/04 06:42:51;;;;;;;1.90;1.05;;;;;;;20.57;75.57;101287.50;5033412;28;20041;-78
2022/08/04 06:45:18;;;;;;;2.38;1.50;;;;;;;20.59;76.00;101290.03;5034412;28;20342;-77
2022/08/04 06:47:46;;;;;;;1.98;1.20;;;;;;;20.60;76.63;101295.25;5033184;28;20038;-78
2022/08/04 06:50:12;;;;;;;2.85;1.33;;;;;;;20.62;76.67;101295.16;5023323;28;20280;-77
2022/08/04 06:52:38;;;;;;;1.38;1.10;;;;;;;20.63;76.96;101297.72;5066625;28;20041;-78
2022/08/04 06:55:06;;;;;;;2.40;1.10;;;;;;;20.64;77.23;101294.06;5034949;28;20236;-77
2022/08/04 06:57:33;;;;;;;2.20;1.58;;;;;;;20.65;77.55;101303.78;5033761;28;20041;-78
2022/08/04 07:00:11;;;;;;;1.63;1.35;;;;;;;20.67;77.77;101299.16;5033471;28;20036;-77
2022/08/04 07:02:51;;;;;;;2.00;1.20;;;;;;;20.69;77.98;101302.56;5033305;28;20395;-77
2022/08/04 07:05:17;;;;;;;3.45;1.70;;;;;;;20.70;77.86;101298.94;5034152;28;20264;-78
2022/08/04 07:07:43;;;;;;;4.57;2.03;;;;;;;20.73;78.00;101305.84;5032970;28;20348;-77
2022/08/04 07:10:09;;;;;;;2.80;1.65;;;;;;;20.72;77.94;101301.50;5034046;28;20086;-77
2022/08/04 07:12:36;;;;;;;2.53;1.50;;;;;;;20.75;77.97;101303.91;5033917;28;20260;-78
2022/08/04 07:15:02;;;;;;;1.65;1.25;;;;;;;20.77;78.00;101306.44;5033313;28;20288;-78
2022/08/04 07:17:29;;;;;;;2.88;1.92;;;;;;;20.79;77.73;101312.50;5032775;28;20034;-78
2022/08/04 07:19:55;;;;;;;3.15;1.65;;;;;;;20.80;77.63;101309.72;5066691;28;20274;-78
2022/08/04 07:22:20;;;;;;;3.08;1.27;;;;;;;20.81;77.75;101314.09;5033882;28;20029;-78
2022/08/04 07:24:46;;;;;;;1.70;1.30;;;;;;;20.84;77.41;101324.50;5034061;28;20033;-77
2022/08/04 07:27:11;;;;;;;3.13;1.30;;;;;;;20.86;77.58;101321.72;5032400;28;20068;-77
2022/08/04 07:29:38;;;;;;;1.67;1.10;;;;;;;20.86;76.55;101333.19;5032681;28;20045;-78
2022/08/04 07:32:05;;;;;;;3.97;1.35;;;;;;;20.87;76.21;101342.06;5034216;28;20045;-78
2022/08/04 07:34:32;;;;;;;2.88;1.30;;;;;;;20.87;76.19;101334.06;5033042;28;20100;-78
2022/08/04 07:36:59;;;;;;;4.03;1.42;;;;;;;20.88;76.19;101333.09;5032768;28;20025;-78
2022/08/04 07:39:31;;;;;;;3.22;1.40;;;;;;;20.88;76.10;101339.28;5033699;28;20244;-77
2022/08/04 07:42:00;;;;;;;3.08;1.25;;;;;;;20.89;75.90;101337.47;5032947;28;20345;-77
2022/08/04 07:44:26;;;;;;;3.88;1.92;;;;;;;20.91;75.87;101343.50;5032058;28;20064;-77
2022/08/04 07:46:52;;;;;;;3.25;1.77;;;;;;;20.92;75.56;101345.22;5033864;28;20340;-78
2022/08/04 07:49:19;;;;;;;2.55;1.25;;;;;;;20.93;75.19;101346.06;5015822;28;20034;-78
2022/08/04 07:51:44;;;;;;;2.17;1.55;;;;;;;20.92;75.06;101350.56;5033304;28;20151;-77
2022/08/04 07:54:11;;;;;;;2.65;1.27;;;;;;;20.95;75.12;101357.44;5036198;28;20180;-78
2022/08/04 07:56:39;;;;;;;4.03;1.60;;;;;;;20.95;74.74;101360.94;5037541;28;20053;-78
2022/08/04 07:59:05;;;;;;;3.78;2.17;;;;;;;20.95;74.82;101355.63;5035961;28;20036;-77
2022/08/04 08:01:33;;;;;;;2.40;1.35;;;;;;;20.97;74.58;101364.34;5069463;28;20067;-78
2022/08/04 08:03:59;;;;;;;2.65;1.65;;;;;;;20.99;74.90;101353.56;5037441;28;20229;-78
2022/08/04 08:06:28;;;;;;;3.05;1.30;;;;;;;20.99;74.70;101356.22;5037093;28;20506;-77
2022/08/04 08:08:54;;;;;;;3.88;1.90;;;;;;;21.01;74.66;101359.63;5025113;28;20021;-77
2022/08/04 08:11:19;;;;;;;3.17;1.35;;;;;;;21.05;74.62;101358.44;5035935;28;20345;-77
2022/08/04 08:13:45;;;;;;;2.60;1.52;;;;;;;21.07;74.67;101360.00;5036889;28;20156;-77
2022/08/04 08:16:11;;;;;;;2.72;1.60;;;;;;;21.11;74.32;101359.78;5036937;28;20033;-78
2022/08/04 08:18:40;;;;;;;3.88;1.50;;;;;;;21.13;74.24;101358.69;5036870;28;20033;-77
2022/08/04 08:21:06;;;;;;;1.30;1.20;;;;;;;21.15;73.54;101362.06;5036802;28;20039;-77
2022/08/04 08:23:34;;;;;;;3.35;1.50;;;;;;;21.16;73.39;101358.47;5034987;28;20041;-77
2022/08/04 08:26:00;;;;;;;2.40;1.17;;;;;;;21.18;73.14;101361.00;5036940;28;20076;-78
2022/08/04 08:28:26;;;;;;;2.70;1.42;;;;;;;21.19;72.88;101354.69;5035249;28;20045;-78
2022/08/04 08:30:51;;;;;;;2.13;1.40;;;;;;;21.20;72.78;101357.25;5037519;28;20168;-78
2022/08/04 08:33:19;;;;;;;8.40;1.80;;;;;;;21.22;72.53;101351.81;5034775;28;20287;-77
2022/08/04 08:35:55;;;;;;;4.68;1.90;;;;;;;21.23;72.62;101354.34;5015276;28;20050;-77
2022/08/04 08:38:33;;;;;;;2.25;1.70;;;;;;;21.25;72.55;101356.91;5028858;28;20033;-77
2022/08/04 08:41:40;;;;;;;3.03;1.95;;;;;;;21.27;72.34;101368.28;5036612;28;20279;-78
2022/08/04 08:44:24;;;;;;;2.10;1.30;;;;;;;21.29;72.18;101363.69;5035644;28;20340;-77
2022/08/04 08:47:03;;;;;;;4.95;1.50;;;;;;;21.31;71.73;101369.72;5035626;28;20025;-78
2022/08/04 08:49:43;;;;;;;1.48;1.33;;;;;;;21.34;71.66;101365.97;5036621;28;20033;-77
2022/08/04 08:52:35;;;;;;;4.85;1.75;;;;;;;21.34;71.96;101363.31;5036687;28;20203;-77
2022/08/04 08:55:34;;;;;;;1.90;1.50;;;;;;;21.37;71.64;101357.75;5025991;28;20029;-78
2022/08/04 08:58:37;;;;;;;2.63;1.33;;;;;;;21.39;70.64;101359.34;5036637;28;20232;-78
2022/08/04 09:01:14;;;;;;;3.63;1.55;;;;;;;21.41;70.51;101359.19;5038331;28;20037;-77
2022/08/04 09:03:59;;;;;;;1.42;1.20;;;;;;;21.43;70.48;101359.94;5024985;28;20310;-78
2022/08/04 09:06:39;;;;;;;3.20;1.60;;;;;;;21.44;70.46;101366.97;5037247;28;20221;-77
2022/08/04 09:09:34;;;;;;;1.85;1.08;;;;;;;21.45;70.27;101371.38;5036958;28;20033;-78
2022/08/04 09:12:14;;;;;;;2.65;1.40;;;;;;;21.45;70.54;101368.69;5013933;28;20041;-78
2022/08/04 09:15:10;;;;;;;3.45;1.40;;;;;;;21.49;70.54;101377.31;5037631;28;20038;-77
2022/08/04 09:17:49;;;;;;;1.88;1.30;;;;;;;21.52;69.43;101374.38;5036246;28;20074;-77
2022/08/04 09:20:24;;;;;;;1.23;1.13;;;;;;;21.54;69.98;101375.09;5037556;28;20340;-77
2022/08/04 09:22:58;;;;;;;2.35;1.33;;;;;;;21.56;69.74;101367.84;5037639;28;20124;-77
2022/08/04 09:25:29;;;;;;;3.03;1.48;;;;;;;21.55;69.75;101380.31;5037500;28;20202;-77
2022/08/04 09:28:01;;;;;;;4.97;1.20;;;;;;;21.57;69.44;101385.53;5016625;28;20038;-77
2022/08/04 09:30:47;;;;;;;1.80;1.33;;;;;;;21.57;68.65;101386.38;5031662;28;20372;-78
2022/08/04 09:33:21;;;;;;;2.97;1.20;;;;;;;21.58;68.91;101392.56;5037234;28;20052;-78
2022/08/04 09:36:03;;;;;;;2.53;1.52;;;;;;;21.60;68.90;101404.78;5035866;28;20071;-77
2022/08/04 09:38:36;;;;;;;1.23;1.10;;;;;;;21.63;69.19;101414.38;5035952;28;20025;-78
2022/08/04 09:41:24;;;;;;;1.00;0.85;;;;;;;21.65;69.72;101412.44;5025379;28;20037;-78
2022/08/04 09:44:03;;;;;;;1.88;0.90;;;;;;;21.65;69.78;101404.44;5036326;28;20212;-77
2022/08/04 09:46:47;;;;;;;0.85;0.80;;;;;;;21.66;69.96;101400.78;5035481;28;20103;-77
2022/08/04 09:49:18;;;;;;;1.00;1.00;;;;;;;21.65;69.99;101405.28;5025024;28;20264;-78
2022/08/04 09:51:50;;;;;;;0.95;0.88;;;;;;;21.65;69.47;101413.28;5035701;28;20021;-77
2022/08/04 09:54:27;;;;;;;1.00;0.93;;;;;;;21.64;69.52;101422.22;5036808;28;20045;-77
2022/08/04 09:57:06;;;;;;;1.10;1.00;;;;;;;21.66;69.38;101422.94;5037174;28;20049;-78
2022/08/04 09:59:42;;;;;;;2.08;1.10;;;;;;;21.66;69.79;101427.44;5035190;28;20048;-77
2022/08/04 10:02:12;;;;;;;2.03;1.10;;;;;;;21.67;69.29;101439.81;5024603;28;20337;-78
2022/08/04 10:04:41;;;;;;;2.00;1.30;;;;;;;21.66;69.80;101425.63;5035903;28;20204;-78
2022/08/04 10:07:15;;;;;;;1.27;1.17;;;;;;;21.70;69.03;101417.38;5036785;28;20060;-77
2022/08/04 10:10:00;;;;;;;2.88;1.20;;;;;;;21.71;68.35;101427.09;5036545;28;20043;-78
2022/08/04 10:12:37;;;;;;;3.80;1.50;;;;;;;21.73;67.63;101423.31;5036496;28;20244;-77
2022/08/04 10:15:15;;;;;;;3.10;1.25;;;;;;;21.76;67.72;101424.91;5036312;28;20104;-78
2022/08/04 10:17:43;;;;;;;;;;;;;;;21.77;67.92;101430.09;5036848;28;20044;-78
2022/08/04 10:20:19;;;;;;;1.42;1.05;;;;;;;21.77;67.76;101432.78;5036725;28;19908;-78
2022/08/04 10:23:09;;;;;;;1.65;1.10;;;;;;;21.80;68.98;101442.38;5036447;28;20017;-78
2022/08/04 10:25:59;;;;;;;2.20;1.10;;;;;;;21.80;68.50;101432.53;5034889;28;20032;-77
2022/08/04 10:28:27;;;;;;;1.20;0.90;;;;;;;21.81;68.78;101428.03;5025679;28;20040;-77
2022/08/04 10:31:02;;;;;;;0.88;0.80;;;;;;;21.83;69.24;101444.81;5035715;28;20320;-78
2022/08/04 10:33:36;;;;;;;0.93;0.90;;;;;;;21.83;69.28;101436.81;5036143;28;20041;-78
2022/08/04 10:36:25;;;;;;;2.55;1.25;;;;;;;21.86;68.92;101436.53;5022978;28;20369;-77
2022/08/04 10:39:16;;;;;;;1.50;1.23;;;;;;;21.92;68.46;101432.53;5036257;28;20032;-77
2022/08/04 10:41:52;;;;;;;2.35;1.30;;;;;;;21.94;67.99;101420.78;5036284;28;20213;-77
2022/08/04 10:44:34;;;;;;;2.58;1.48;;;;;;;21.98;67.29;101434.72;5023477;28;20256;-78
2022/08/04 10:47:07;;;;;;;1.40;1.23;;;;;;;22.01;67.07;101435.34;5036114;28;20202;-78
2022/08/04 10:49:55;;;;;;;3.40;1.30;;;;;;;22.04;66.85;101437.72;5036068;28;20037;-77
2022/08/04 10:52:43;;;;;;;1.73;1.00;;;;;;;22.06;66.92;101442.94;5034540;28;20095;-78
2022/08/04 10:55:17;;;;;;;2.53;1.00;;;;;;;22.09;67.33;101439.22;5035988;28;20052;-78
2022/08/04 10:57:50;;;;;;;2.17;1.23;;;;;;;22.09;66.61;101448.03;5034608;28;20020;-78
2022/08/04 11:00:23;;;;;;;1.52;1.42;;;;;;;22.10;65.62;101447.06;5035535;28;20419;-77
2022/08/04 11:03:20;;;;;;;1.25;1.08;;;;;;;22.11;65.96;101448.78;5036457;28;20206;-77
2022/08/04 11:05:57;;;;;;;1.35;1.20;;;;;;;22.14;65.70;101431.66;5026059;28;20045;-77
2022/08/04 11:08:34;;;;;;;1.60;1.13;;;;;;;22.16;65.71;101427.06;5034062;28;20033;-78
2022/08/04 11:11:12;;;;;;;1.58;1.35;;;;;;;22.20;66.94;101425.84;5036149;28;20581;-78
2022/08/04 11:13:50;;;;;;;3.22;1.42;;;;;;;22.24;66.11;101425.47;5023404;28;20033;-78
2022/08/04 11:16:21;;;;;;;1.45;1.20;;;;;;;22.29;65.66;101429.63;5034197;28;20017;-78
2022/08/04 11:19:18;;;;;;;1.30;1.20;;;;;;;22.36;64.42;101426.34;5035322;28;20088;-78
2022/08/04 11:21:52;;;;;;;1.30;1.20;;;;;;;22.39;63.88;101425.22;5035598;28;20022;-78
2022/08/04 11:24:49;;;;;;;3.40;1.60;;;;;;;22.43;63.72;101424.03;5034038;28;20304;-77
2022/08/04 11:27:24;;;;;;;3.40;1.25;;;;;;;22.48;64.34;101428.97;5024062;28;20045;-78
2022/08/04 11:30:02;;;;;;;1.98;1.17;;;;;;;22.53;66.11;101429.44;5027393;28;20100;-78
2022/08/04 11:32:45;;;;;;;2.03;1.48;;;;;;;22.54;65.56;101423.97;5039294;28;20407;-78
2022/08/04 11:35:53;;;;;;;1.33;1.23;;;;;;;22.56;65.14;101435.38;5026258;28;20038;-78
2022/08/04 11:38:26;;;;;;;2.88;1.48;;;;;;;22.61;64.59;101435.84;5024460;28;20037;-78
2022/08/04 11:40:57;;;;;;;3.47;1.23;;;;;;;22.63;64.30;101427.72;5039953;28;20382;-78
2022/08/04 11:43:36;;;;;;;1.80;1.20;;;;;;;22.67;63.74;101431.81;5039368;28;20063;-78
2022/08/04 11:46:07;;;;;;;3.22;1.20;;;;;;;22.71;63.32;101432.41;5028488;28;20084;-77
2022/08/04 11:48:39;;;;;;;2.40;1.30;;;;;;;22.73;62.75;101433.97;5037789;28;20333;-78
2022/08/04 11:51:06;;;;;;;2.15;1.40;;;;;;;22.77;64.71;101442.56;5039560;28;20029;-77
2022/08/04 11:53:36;;;;;;;2.67;1.35;;;;;;;22.78;62.54;101436.28;5037785;28;20033;-77
2022/08/04 11:56:04;;;;;;;1.05;0.95;;;;;;;22.80;63.08;101432.50;5038219;28;20029;-77
2022/08/04 11:58:30;;;;;;;;;;;;;;;22.85;64.28;101439.25;5038050;28;20040;-78
2022/08/04 12:01:09;;;;;;;2.40;1.20;;;;;;;22.86;63.19;101441.81;5071599;28;19916;-77
2022/08/04 12:04:05;;;;;;;0.70;0.70;;;;;;;22.89;65.81;101441.56;5039414;28;20037;-78
2022/08/04 12:06:55;;;;;;;4.38;1.30;;;;;;;22.91;65.31;101441.44;5039051;28;20041;-77
2022/08/04 12:09:38;;;;;;;1.38;0.95;;;;;;;22.92;64.49;101438.66;5037609;28;20041;-78
2022/08/04 12:12:20;;;;;;;1.90;1.23;;;;;;;22.97;62.48;101448.94;5039511;28;20041;-78